Hansa Rendsburg — A8CF4 — position and weather

sailwx.info

Track history (hours):
 
Tides and Currents Weather Stations Pressure Air Temp Water Temp Dewpoint Dewpoint Depression Visibility Wind Speed Wind Dir Waves Ship Positions

Hansa Rendsburg

Last reported at 2017-Jun-27 01:50 UTC. Time now 2017-Jun-27 12:17 UTC.
Position N 36°05' W 006°18'.

Type: Cargo ship. MMSI: 636090636.

Date/timePositionNaut miles runAvg speedWind from/ knotsBaromVisibWave heightAir tempDewpointWater temp
2017-Jun-27 01:50N 36°05' W 006°18'0 0.0
2017-Jun-27 01:29N 36°05' W 006°18'0 0.0
2017-Jun-26 19:49N 36°05' W 006°18'0 0.0
2017-Jun-26 18:49N 36°05' W 006°18'0 0.0
2017-Jun-26 17:49N 36°05' W 006°18'0 0.0
2017-Jun-26 17:25N 36°05' W 006°18'0 0.0
2017-Jun-26 16:58N 36°05' W 006°18'0 0.0
2017-Jun-26 13:25N 36°05' W 006°18'0 0.0
2017-Jun-26 12:52N 36°05' W 006°18'0 0.0
2017-Jun-26 12:28N 36°05' W 006°18'0 0.0
2017-Jun-26 03:49N 36°05' W 006°18'  
2017-Jun-23 15:18N 36°05' W 006°18'0 0.0
2017-Jun-23 14:59N 36°05' W 006°18'0 0.0
2017-Jun-23 13:29N 36°05' W 006°18'0 0.2
2017-Jun-23 12:20N 36°05' W 006°18'1411.0
2017-Jun-23 11:03N 35°59' W 006°02'112.7
2017-Jun-23 10:58N 35°59' W 006°01'2212.3
2017-Jun-23 09:11N 35°59' W 005°34'310.2
2017-Jun-23 08:53N 35°60' W 005°30'4 9.9
2017-Jun-23 08:28N 36°01' W 005°25'511.2
2017-Jun-23 07:59N 36°07' W 005°24'3 0.1
2017-Jun-22 05:05N 36°09' W 005°26'0 0.0
2017-Jun-22 04:59N 36°09' W 005°26'0 0.0
2017-Jun-22 04:29N 36°09' W 005°26'0 0.0
2017-Jun-22 03:59N 36°09' W 005°26'0 0.0
2017-Jun-22 03:23N 36°09' W 005°26'0 0.0
2017-Jun-22 02:59N 36°09' W 005°26'0 0.0
2017-Jun-22 02:29N 36°09' W 005°26'0 0.0
2017-Jun-21 20:41N 36°09' W 005°26'0 0.0
2017-Jun-21 05:11N 36°09' W 005°26'0 0.0
2017-Jun-21 02:59N 36°09' W 005°26'0 0.0
2017-Jun-21 02:29N 36°09' W 005°26'0 0.0
2017-Jun-21 01:53N 36°09' W 005°26'0 0.0
2017-Jun-21 01:23N 36°09' W 005°26'0 0.0
2017-Jun-20 18:38N 36°09' W 005°26'0 0.0
2017-Jun-20 18:28N 36°09' W 005°26'0 0.0
2017-Jun-20 17:58N 36°09' W 005°26'0 0.0
2017-Jun-20 05:52N 36°09' W 005°26'0 0.0
2017-Jun-20 05:28N 36°09' W 005°26'0 0.0
2017-Jun-20 04:58N 36°09' W 005°26'0 0.0
2017-Jun-20 04:28N 36°09' W 005°26'0 0.0
2017-Jun-20 03:58N 36°09' W 005°26'0 0.0
2017-Jun-20 03:28N 36°09' W 005°26'0 0.0
2017-Jun-20 02:58N 36°09' W 005°26'0 0.0
2017-Jun-20 02:19N 36°09' W 005°26'0 0.0
2017-Jun-19 23:34N 36°09' W 005°26'0 0.0
2017-Jun-19 20:31N 36°09' W 005°26'0 0.0
2017-Jun-19 20:19N 36°09' W 005°26'0 0.0
2017-Jun-19 19:55N 36°09' W 005°26'0 0.0
2017-Jun-19 19:28N 36°09' W 005°26'0 0.0
2017-Jun-19 17:52N 36°09' W 005°26'0 0.0
2017-Jun-19 17:22N 36°09' W 005°26'0 0.0
2017-Jun-19 16:58N 36°09' W 005°26'0 0.0
2017-Jun-19 16:28N 36°09' W 005°26'1 2.4
2017-Jun-19 16:00N 36°09' W 005°24'1 0.2
2017-Jun-19 08:38N 36°10' W 005°23'0 0.1
2017-Jun-19 08:30N 36°10' W 005°23'3 3.1
2017-Jun-19 07:36N 36°07' W 005°24'2 6.7
2017-Jun-19 07:21N 36°05' W 005°23'2 6.1
2017-Jun-19 07:00N 36°03' W 005°23'4 7.5
2017-Jun-19 06:30N 35°60' W 005°23'5 9.7
2017-Jun-19 06:00N 35°58' W 005°29'10211.5
2017-Jun-18 21:08N 34°52' W 007°05'2512.2
2017-Jun-18 19:04N 34°32' W 007°24'311.5
2017-Jun-18 18:50N 34°30' W 007°26'411.4
2017-Jun-18 18:30N 34°27' W 007°29'611.3
2017-Jun-18 18:00N 34°23' W 007°33'21 3.0
2017-Jun-18 10:47N 34°09' W 007°53'0 0.9
2017-Jun-18 10:26N 34°09' W 007°54'1 1.3
2017-Jun-18 09:55N 34°09' W 007°54'2012.0
2017-Jun-18 08:17N 33°54' W 008°10'20010.9
2017-Jun-17 14:00N 31°18' W 010°38'  
Track history (hours):
 
Tides and Currents Weather Stations Pressure Air Temp Water Temp Dewpoint Dewpoint Depression Visibility Wind Speed Wind Dir Waves Ship Positions

Hansa Rendsburg

Last reported at 2017-Jun-27 01:50 UTC. Time now 2017-Jun-27 12:17 UTC.
Position N 36°05' W 006°18'.

Type: Cargo ship. MMSI: 636090636.

Date/timePositionNaut miles runAvg speedWind from/ knotsBaromVisibWave heightAir tempDewpointWater temp
2017-Jun-27 01:50N 36°05' W 006°18'0 0.0
2017-Jun-27 01:29N 36°05' W 006°18'0 0.0
2017-Jun-26 19:49N 36°05' W 006°18'0 0.0
2017-Jun-26 18:49N 36°05' W 006°18'0 0.0
2017-Jun-26 17:49N 36°05' W 006°18'0 0.0
2017-Jun-26 17:25N 36°05' W 006°18'0 0.0
2017-Jun-26 16:58N 36°05' W 006°18'0 0.0
2017-Jun-26 13:25N 36°05' W 006°18'0 0.0
2017-Jun-26 12:52N 36°05' W 006°18'0 0.0
2017-Jun-26 12:28N 36°05' W 006°18'0 0.0
2017-Jun-26 03:49N 36°05' W 006°18'  
2017-Jun-23 15:18N 36°05' W 006°18'0 0.0
2017-Jun-23 14:59N 36°05' W 006°18'0 0.0
2017-Jun-23 13:29N 36°05' W 006°18'0 0.2
2017-Jun-23 12:20N 36°05' W 006°18'1411.0
2017-Jun-23 11:03N 35°59' W 006°02'112.7
2017-Jun-23 10:58N 35°59' W 006°01'2212.3
2017-Jun-23 09:11N 35°59' W 005°34'310.2
2017-Jun-23 08:53N 35°60' W 005°30'4 9.9
2017-Jun-23 08:28N 36°01' W 005°25'511.2
2017-Jun-23 07:59N 36°07' W 005°24'3 0.1
2017-Jun-22 05:05N 36°09' W 005°26'0 0.0
2017-Jun-22 04:59N 36°09' W 005°26'0 0.0
2017-Jun-22 04:29N 36°09' W 005°26'0 0.0
2017-Jun-22 03:59N 36°09' W 005°26'0 0.0
2017-Jun-22 03:23N 36°09' W 005°26'0 0.0
2017-Jun-22 02:59N 36°09' W 005°26'0 0.0
2017-Jun-22 02:29N 36°09' W 005°26'0 0.0
2017-Jun-21 20:41N 36°09' W 005°26'0 0.0
2017-Jun-21 05:11N 36°09' W 005°26'0 0.0
2017-Jun-21 02:59N 36°09' W 005°26'0 0.0
2017-Jun-21 02:29N 36°09' W 005°26'0 0.0
2017-Jun-21 01:53N 36°09' W 005°26'0 0.0
2017-Jun-21 01:23N 36°09' W 005°26'0 0.0
2017-Jun-20 18:38N 36°09' W 005°26'0 0.0
2017-Jun-20 18:28N 36°09' W 005°26'0 0.0
2017-Jun-20 17:58N 36°09' W 005°26'0 0.0
2017-Jun-20 05:52N 36°09' W 005°26'0 0.0
2017-Jun-20 05:28N 36°09' W 005°26'0 0.0
2017-Jun-20 04:58N 36°09' W 005°26'0 0.0
2017-Jun-20 04:28N 36°09' W 005°26'0 0.0
2017-Jun-20 03:58N 36°09' W 005°26'0 0.0
2017-Jun-20 03:28N 36°09' W 005°26'0 0.0
2017-Jun-20 02:58N 36°09' W 005°26'0 0.0
2017-Jun-20 02:19N 36°09' W 005°26'0 0.0
2017-Jun-19 23:34N 36°09' W 005°26'0 0.0
2017-Jun-19 20:31N 36°09' W 005°26'0 0.0
2017-Jun-19 20:19N 36°09' W 005°26'0 0.0
2017-Jun-19 19:55N 36°09' W 005°26'0 0.0
2017-Jun-19 19:28N 36°09' W 005°26'0 0.0
2017-Jun-19 17:52N 36°09' W 005°26'0 0.0
2017-Jun-19 17:22N 36°09' W 005°26'0 0.0
2017-Jun-19 16:58N 36°09' W 005°26'0 0.0
2017-Jun-19 16:28N 36°09' W 005°26'1 2.4
2017-Jun-19 16:00N 36°09' W 005°24'1 0.2
2017-Jun-19 08:38N 36°10' W 005°23'0 0.1
2017-Jun-19 08:30N 36°10' W 005°23'3 3.1
2017-Jun-19 07:36N 36°07' W 005°24'2 6.7
2017-Jun-19 07:21N 36°05' W 005°23'2 6.1
2017-Jun-19 07:00N 36°03' W 005°23'4 7.5
2017-Jun-19 06:30N 35°60' W 005°23'5 9.7
2017-Jun-19 06:00N 35°58' W 005°29'10211.5
2017-Jun-18 21:08N 34°52' W 007°05'2512.2
2017-Jun-18 19:04N 34°32' W 007°24'311.5
2017-Jun-18 18:50N 34°30' W 007°26'411.4
2017-Jun-18 18:30N 34°27' W 007°29'611.3
2017-Jun-18 18:00N 34°23' W 007°33'21 3.0
2017-Jun-18 10:47N 34°09' W 007°53'0 0.9
2017-Jun-18 10:26N 34°09' W 007°54'1 1.3
2017-Jun-18 09:55N 34°09' W 007°54'2012.0
2017-Jun-18 08:17N 33°54' W 008°10'20010.9
2017-Jun-17 14:00N 31°18' W 010°38'  

Dump ship's entire track history